createdAt,value
2017-08-30T00:00:32.106Z,17.72
2017-08-30T00:01:32.729Z,17.80
2017-08-30T00:02:33.344Z,17.82
2017-08-30T00:03:34.062Z,17.80
2017-08-30T00:04:34.682Z,17.89
2017-08-30T00:05:35.301Z,17.89
2017-08-30T00:06:35.927Z,17.90
2017-08-30T00:07:36.574Z,17.83
2017-08-30T00:08:37.321Z,17.89
2017-08-30T00:09:37.940Z,17.86
2017-08-30T00:10:38.558Z,17.89
2017-08-30T00:11:39.175Z,17.89
2017-08-30T00:12:39.796Z,17.79
2017-08-30T00:13:40.513Z,17.85
2017-08-30T00:14:41.151Z,17.82
2017-08-30T00:15:41.767Z,17.78
2017-08-30T00:16:42.392Z,17.85
2017-08-30T00:17:43.007Z,17.86
2017-08-30T00:18:43.731Z,17.82
2017-08-30T00:19:44.348Z,17.79
2017-08-30T00:20:44.973Z,17.79
2017-08-30T00:21:45.589Z,17.85
2017-08-30T00:22:46.212Z,17.86
2017-08-30T00:23:46.925Z,17.83
2017-08-30T00:24:47.545Z,17.82
2017-08-30T00:25:48.163Z,17.71
2017-08-30T00:26:48.786Z,17.71
2017-08-30T00:27:49.402Z,17.70
2017-08-30T00:28:50.122Z,17.70
2017-08-30T00:29:50.741Z,17.63
2017-08-30T00:30:51.364Z,17.63
2017-08-30T00:31:51.979Z,17.57
2017-08-30T00:32:52.597Z,17.56
2017-08-30T00:33:53.314Z,17.46
2017-08-30T00:34:53.932Z,17.52
2017-08-30T00:35:54.550Z,17.54
2017-08-30T00:36:55.175Z,17.48
2017-08-30T00:37:55.823Z,17.49
2017-08-30T00:38:56.547Z,17.46
2017-08-30T00:39:57.164Z,17.44
2017-08-30T00:40:57.783Z,17.39
2017-08-30T00:41:58.404Z,17.45
2017-08-30T00:42:59.033Z,17.39
2017-08-30T00:43:59.774Z,17.42
2017-08-30T00:45:00.394Z,17.38
2017-08-30T00:46:01.045Z,17.38
2017-08-30T00:47:01.664Z,17.34
2017-08-30T00:48:02.316Z,17.41
2017-08-30T00:49:03.035Z,17.45
2017-08-30T00:50:03.684Z,17.42
2017-08-30T00:51:04.303Z,17.49
2017-08-30T00:52:04.920Z,17.56
2017-08-30T00:53:05.537Z,17.49
2017-08-30T00:54:06.255Z,17.56
2017-08-30T00:55:06.874Z,17.48
2017-08-30T00:56:07.499Z,17.51
2017-08-30T00:57:08.114Z,17.52
2017-08-30T00:58:08.731Z,17.57
2017-08-30T00:59:09.455Z,17.65
2017-08-30T01:00:10.072Z,17.63
2017-08-30T01:01:10.693Z,17.60
2017-08-30T01:02:11.307Z,17.60
2017-08-30T01:03:11.933Z,17.67
2017-08-30T01:04:12.648Z,17.67
2017-08-30T01:05:13.272Z,17.63
2017-08-30T01:06:13.886Z,17.57
2017-08-30T01:07:14.507Z,17.59
2017-08-30T01:08:15.125Z,17.63
2017-08-30T01:09:15.842Z,17.59
2017-08-30T01:10:16.466Z,17.67
2017-08-30T01:11:17.084Z,17.57
2017-08-30T01:12:17.703Z,17.56
2017-08-30T01:13:18.326Z,17.45
2017-08-30T01:14:19.042Z,17.51
2017-08-30T01:15:19.667Z,17.52
2017-08-30T01:16:20.282Z,17.51
2017-08-30T01:17:20.899Z,17.52
2017-08-30T01:18:21.523Z,17.45
2017-08-30T01:19:22.245Z,17.49
2017-08-30T01:20:22.860Z,17.48
2017-08-30T01:21:23.477Z,17.46
2017-08-30T01:22:24.102Z,17.54
2017-08-30T01:23:24.722Z,17.48
2017-08-30T01:24:25.436Z,17.54
2017-08-30T01:25:26.055Z,17.54
2017-08-30T01:26:26.674Z,17.56
2017-08-30T01:27:27.293Z,17.46
2017-08-30T01:28:27.916Z,17.51
2017-08-30T01:29:28.637Z,17.48
2017-08-30T01:30:29.287Z,17.46
2017-08-30T01:31:29.906Z,17.44
2017-08-30T01:32:30.522Z,17.45
2017-08-30T01:33:31.140Z,17.44
2017-08-30T01:34:31.860Z,17.45
2017-08-30T01:35:32.481Z,17.41
2017-08-30T01:36:33.097Z,17.42
2017-08-30T01:37:33.716Z,17.45
2017-08-30T01:38:34.334Z,17.44
2017-08-30T01:39:35.051Z,17.49
2017-08-30T01:40:35.675Z,17.49
2017-08-30T01:41:36.323Z,17.48
2017-08-30T01:42:36.942Z,17.42
2017-08-30T01:43:37.561Z,17.34
2017-08-30T01:44:38.284Z,17.27
2017-08-30T01:45:38.899Z,17.29
2017-08-30T01:46:39.516Z,17.30
2017-08-30T01:47:40.139Z,17.29
2017-08-30T01:48:40.754Z,17.20
2017-08-30T01:49:41.473Z,17.20
2017-08-30T01:50:42.091Z,17.20
2017-08-30T01:51:42.710Z,17.24
2017-08-30T01:52:43.329Z,17.23
2017-08-30T01:53:43.945Z,17.22
2017-08-30T01:54:44.700Z,17.27
2017-08-30T01:55:45.322Z,17.26
2017-08-30T01:56:45.943Z,17.24
2017-08-30T01:57:46.590Z,17.26
2017-08-30T01:58:47.213Z,17.23
2017-08-30T01:59:47.930Z,17.24
2017-08-30T02:00:48.549Z,17.24
2017-08-30T02:01:49.173Z,17.24
2017-08-30T02:02:49.789Z,17.15
2017-08-30T02:03:50.407Z,17.16
2017-08-30T02:04:51.125Z,17.15
2017-08-30T02:05:51.745Z,17.09
2017-08-30T02:06:52.362Z,17.09
2017-08-30T02:07:52.980Z,17.09
2017-08-30T02:08:53.604Z,17.14
2017-08-30T02:09:54.318Z,17.16
2017-08-30T02:10:54.968Z,17.14
2017-08-30T02:11:55.617Z,17.11
2017-08-30T02:12:56.273Z,17.12
2017-08-30T02:13:56.929Z,17.11
2017-08-30T02:14:57.643Z,17.14
2017-08-30T02:15:58.259Z,17.11
2017-08-30T02:16:58.879Z,17.14
2017-08-30T02:17:59.498Z,17.14
2017-08-30T02:19:00.120Z,17.20
2017-08-30T02:20:00.837Z,17.16
2017-08-30T02:21:01.456Z,17.11
2017-08-30T02:22:02.073Z,17.09
2017-08-30T02:23:02.697Z,17.14
2017-08-30T02:24:03.315Z,16.97
2017-08-30T02:25:04.033Z,17.06
2017-08-30T02:26:04.651Z,17.12
2017-08-30T02:27:05.268Z,17.04
2017-08-30T02:28:05.885Z,17.09
2017-08-30T02:29:06.504Z,16.99
2017-08-30T02:30:07.254Z,16.99
2017-08-30T02:31:07.877Z,17.05
2017-08-30T02:32:08.499Z,17.04
2017-08-30T02:33:09.113Z,16.99
2017-08-30T02:34:09.747Z,17.02
2017-08-30T02:35:10.468Z,17.01
2017-08-30T02:36:11.084Z,16.91
2017-08-30T02:37:11.707Z,16.99
2017-08-30T02:38:12.322Z,16.90
2017-08-30T02:39:12.945Z,16.93
2017-08-30T02:40:13.660Z,16.87
2017-08-30T02:41:14.280Z,16.86
2017-08-30T02:42:14.898Z,16.86
2017-08-30T02:43:15.515Z,16.90
2017-08-30T02:44:16.134Z,16.83
2017-08-30T02:45:16.851Z,16.86
2017-08-30T02:46:17.471Z,16.87
2017-08-30T02:47:18.090Z,16.91
2017-08-30T02:48:18.706Z,16.86
2017-08-30T02:49:19.325Z,16.81
2017-08-30T02:50:20.043Z,16.87
2017-08-30T02:51:20.665Z,16.89
2017-08-30T02:52:21.286Z,16.86
2017-08-30T02:53:21.907Z,16.81
2017-08-30T02:54:22.556Z,16.68
2017-08-30T02:55:23.272Z,16.81
2017-08-30T02:56:23.891Z,16.72
2017-08-30T02:57:24.509Z,16.72
2017-08-30T02:58:25.127Z,16.71
2017-08-30T02:59:25.746Z,16.74
2017-08-30T03:00:26.469Z,16.68
2017-08-30T03:01:27.085Z,16.60
2017-08-30T03:02:27.709Z,16.64
2017-08-30T03:03:28.332Z,16.68
2017-08-30T03:04:28.940Z,16.60
2017-08-30T03:05:29.663Z,16.60
2017-08-30T03:06:30.277Z,16.66
2017-08-30T03:07:30.895Z,16.58
2017-08-30T03:08:31.544Z,16.64
2017-08-30T03:09:32.162Z,16.68
2017-08-30T03:10:32.881Z,16.74
2017-08-30T03:11:33.506Z,16.69
2017-08-30T03:12:34.157Z,16.72
2017-08-30T03:13:34.780Z,16.71
2017-08-30T03:14:35.401Z,16.69
2017-08-30T03:15:36.114Z,16.66
2017-08-30T03:16:36.767Z,16.66
2017-08-30T03:17:37.417Z,16.58
2017-08-30T03:18:38.036Z,16.54
2017-08-30T03:19:38.654Z,16.60
2017-08-30T03:20:39.371Z,16.47
2017-08-30T03:21:39.989Z,16.42
2017-08-30T03:22:40.605Z,16.46
2017-08-30T03:23:41.224Z,16.54
2017-08-30T03:24:41.845Z,16.50
2017-08-30T03:25:42.560Z,16.47
2017-08-30T03:26:43.176Z,16.38
2017-08-30T03:27:43.793Z,16.36
2017-08-30T03:28:44.417Z,16.39
2017-08-30T03:29:45.038Z,16.36
2017-08-30T03:30:45.756Z,16.32
2017-08-30T03:31:46.374Z,16.36
2017-08-30T03:32:46.992Z,16.26
2017-08-30T03:33:47.613Z,16.32
2017-08-30T03:34:48.229Z,16.29
2017-08-30T03:35:49.152Z,16.21
2017-08-30T03:36:49.800Z,16.16
2017-08-30T03:37:50.416Z,16.21
2017-08-30T03:38:51.037Z,16.24
2017-08-30T03:39:51.652Z,16.29
2017-08-30T03:40:52.372Z,16.29
2017-08-30T03:41:52.988Z,16.31
2017-08-30T03:42:53.604Z,16.29
2017-08-30T03:43:54.227Z,16.29
2017-08-30T03:44:54.842Z,16.28
2017-08-30T03:45:55.761Z,16.31
2017-08-30T03:46:56.379Z,16.33
2017-08-30T03:47:57.002Z,16.28
2017-08-30T03:48:57.622Z,16.26
2017-08-30T03:49:58.243Z,16.26
2017-08-30T03:50:59.114Z,16.10
2017-08-30T03:51:59.728Z,16.16
2017-08-30T03:53:00.345Z,16.17
2017-08-30T03:54:00.968Z,16.00
2017-08-30T03:55:01.583Z,16.13
2017-08-30T03:56:02.299Z,16.10
2017-08-30T03:57:02.917Z,16.02
2017-08-30T03:58:03.552Z,16.09
2017-08-30T03:59:04.152Z,16.05
2017-08-30T04:00:04.768Z,16.08
2017-08-30T04:01:05.485Z,16.01
2017-08-30T04:02:06.100Z,16.01
2017-08-30T04:03:06.749Z,16.02
2017-08-30T04:04:07.372Z,16.08
2017-08-30T04:05:07.987Z,16.01
2017-08-30T04:06:08.705Z,15.98
2017-08-30T04:07:09.325Z,16.01
2017-08-30T04:08:09.939Z,16.08
2017-08-30T04:09:10.557Z,16.02
2017-08-30T04:10:11.174Z,16.05
2017-08-30T04:11:11.891Z,16.01
2017-08-30T04:12:12.509Z,16.01
2017-08-30T04:13:13.130Z,16.05
2017-08-30T04:14:13.750Z,16.02
2017-08-30T04:15:14.361Z,16.08
2017-08-30T04:16:15.079Z,16.04
2017-08-30T04:17:15.696Z,15.94
2017-08-30T04:18:16.312Z,16.05
2017-08-30T04:19:16.932Z,16.01
2017-08-30T04:20:17.548Z,16.01
2017-08-30T04:21:18.263Z,16.09
2017-08-30T04:22:18.882Z,16.09
2017-08-30T04:23:19.499Z,16.10
2017-08-30T04:24:20.116Z,16.05
2017-08-30T04:25:20.733Z,16.17
2017-08-30T04:26:21.455Z,16.23
2017-08-30T04:27:22.078Z,16.23
2017-08-30T04:28:22.692Z,16.15
2017-08-30T04:29:23.340Z,16.28
2017-08-30T04:30:23.990Z,16.36
2017-08-30T04:31:24.706Z,16.38
2017-08-30T04:32:25.322Z,16.38
2017-08-30T04:33:25.941Z,16.31
2017-08-30T04:34:26.564Z,16.43
2017-08-30T04:35:27.179Z,16.36
2017-08-30T04:36:27.896Z,16.28
2017-08-30T04:37:28.513Z,16.42
2017-08-30T04:38:29.132Z,16.39
2017-08-30T04:39:29.749Z,16.41
2017-08-30T04:40:30.367Z,16.39
2017-08-30T04:41:31.091Z,16.43
2017-08-30T04:42:31.705Z,16.38
2017-08-30T04:43:32.324Z,16.46
2017-08-30T04:44:32.974Z,16.43
2017-08-30T04:45:33.592Z,16.42
2017-08-30T04:46:34.309Z,16.47
2017-08-30T04:47:34.928Z,16.42
2017-08-30T04:48:35.546Z,16.46
2017-08-30T04:49:36.195Z,16.42
2017-08-30T04:50:36.813Z,16.41
2017-08-30T04:51:37.530Z,16.41
2017-08-30T04:52:38.147Z,16.51
2017-08-30T04:53:38.763Z,16.49
2017-08-30T04:54:39.383Z,16.46
2017-08-30T04:55:40.007Z,16.49
2017-08-30T04:56:40.721Z,16.49
2017-08-30T04:57:41.343Z,16.53
2017-08-30T04:58:41.960Z,16.58
2017-08-30T04:59:42.578Z,16.51
2017-08-30T05:00:43.204Z,16.51
2017-08-30T05:01:43.918Z,16.51
2017-08-30T05:02:44.538Z,16.53
2017-08-30T05:03:45.156Z,16.56
2017-08-30T05:04:45.774Z,16.54
2017-08-30T05:05:46.392Z,16.47
2017-08-30T05:06:47.143Z,16.53
2017-08-30T05:07:47.760Z,16.57
2017-08-30T05:08:48.387Z,16.64
2017-08-30T05:09:48.999Z,16.58
2017-08-30T05:10:49.618Z,16.58
2017-08-30T05:11:50.336Z,16.60
2017-08-30T05:12:50.959Z,16.54
2017-08-30T05:13:51.580Z,16.56
2017-08-30T05:14:52.196Z,16.53
2017-08-30T05:15:52.819Z,16.54
2017-08-30T05:16:53.541Z,16.58
2017-08-30T05:17:54.156Z,16.56
2017-08-30T05:18:54.808Z,16.64
2017-08-30T05:19:55.425Z,16.57
2017-08-30T05:20:56.042Z,16.49
2017-08-30T05:21:56.792Z,16.47
2017-08-30T05:22:57.411Z,16.51
2017-08-30T05:23:58.030Z,16.50
2017-08-30T05:24:58.649Z,16.56
2017-08-30T05:25:59.272Z,16.53
2017-08-30T05:26:59.987Z,16.57
2017-08-30T05:28:00.606Z,16.57
2017-08-30T05:29:01.223Z,16.56
2017-08-30T05:30:01.844Z,16.54
2017-08-30T05:31:02.460Z,16.41
2017-08-30T05:32:03.178Z,16.50
2017-08-30T05:33:03.797Z,16.43
2017-08-30T05:34:04.418Z,16.32
2017-08-30T05:35:05.040Z,16.38
2017-08-30T05:36:05.660Z,16.39
2017-08-30T05:37:06.377Z,16.31
2017-08-30T05:38:06.995Z,16.38
2017-08-30T05:39:07.614Z,16.41
2017-08-30T05:40:08.261Z,16.43
2017-08-30T05:41:08.878Z,16.43
2017-08-30T05:42:09.610Z,16.50
2017-08-30T05:43:10.216Z,16.49
2017-08-30T05:44:10.840Z,16.41
2017-08-30T05:45:11.490Z,16.46
2017-08-30T05:46:12.113Z,16.51
2017-08-30T05:47:12.829Z,16.60
2017-08-30T05:48:13.448Z,16.56
2017-08-30T05:49:14.071Z,16.64
2017-08-30T05:50:14.683Z,16.61
2017-08-30T05:51:15.334Z,16.57
2017-08-30T05:52:16.051Z,16.58
2017-08-30T05:53:16.669Z,16.57
2017-08-30T05:54:17.288Z,16.58
2017-08-30T05:55:17.910Z,16.61
2017-08-30T05:56:18.523Z,16.64
2017-08-30T05:57:19.247Z,16.71
2017-08-30T05:58:19.896Z,16.74
2017-08-30T05:59:20.520Z,16.71
2017-08-30T06:00:21.141Z,16.74
2017-08-30T06:01:21.757Z,16.75
2017-08-30T06:02:22.476Z,16.75
2017-08-30T06:03:23.131Z,16.74
2017-08-30T06:04:23.781Z,16.65
2017-08-30T06:05:24.399Z,16.75
2017-08-30T06:06:25.020Z,16.72
2017-08-30T06:07:25.739Z,16.76
2017-08-30T06:08:26.362Z,16.74
2017-08-30T06:09:26.980Z,16.71
2017-08-30T06:10:27.628Z,16.68
2017-08-30T06:11:28.252Z,16.78
2017-08-30T06:12:28.973Z,16.76
2017-08-30T06:13:29.590Z,16.87
2017-08-30T06:14:30.241Z,16.84
2017-08-30T06:15:30.892Z,16.91
2017-08-30T06:16:31.544Z,16.89
2017-08-30T06:17:32.297Z,16.94
2017-08-30T06:18:32.917Z,16.97
2017-08-30T06:19:33.536Z,16.96
2017-08-30T06:20:34.157Z,17.01
2017-08-30T06:21:34.778Z,17.08
2017-08-30T06:22:35.497Z,17.05
2017-08-30T06:23:36.121Z,17.06
2017-08-30T06:24:36.740Z,17.04
2017-08-30T06:25:37.392Z,17.16
2017-08-30T06:26:38.013Z,17.15
2017-08-30T06:27:38.732Z,17.09
2017-08-30T06:28:39.359Z,17.12
2017-08-30T06:29:40.012Z,17.23
2017-08-30T06:30:40.636Z,17.24
2017-08-30T06:31:41.253Z,17.23
2017-08-30T06:32:41.977Z,17.22
2017-08-30T06:33:42.601Z,17.33
2017-08-30T06:34:43.256Z,17.33
2017-08-30T06:35:43.878Z,17.33
2017-08-30T06:36:44.528Z,17.41
2017-08-30T06:37:45.247Z,17.45
2017-08-30T06:38:45.873Z,17.42
2017-08-30T06:39:46.492Z,17.51
2017-08-30T06:40:47.118Z,17.44
2017-08-30T06:41:47.737Z,17.57
2017-08-30T06:42:48.460Z,17.63
2017-08-30T06:43:49.079Z,17.68
2017-08-30T06:44:49.705Z,17.67
2017-08-30T06:45:50.323Z,17.67
2017-08-30T06:46:50.943Z,17.71
2017-08-30T06:47:51.665Z,17.78
2017-08-30T06:48:52.318Z,17.83
2017-08-30T06:49:52.948Z,17.80
2017-08-30T06:50:53.570Z,17.90
2017-08-30T06:51:54.192Z,17.90
2017-08-30T06:52:54.916Z,18.00
2017-08-30T06:53:55.566Z,18.03
2017-08-30T06:54:56.188Z,18.03
2017-08-30T06:55:56.811Z,18.07
2017-08-30T06:56:57.432Z,18.11
2017-08-30T06:57:58.155Z,18.11
2017-08-30T06:58:58.782Z,18.08
2017-08-30T06:59:59.402Z,18.13
2017-08-30T07:01:00.024Z,18.18
2017-08-30T07:02:00.645Z,18.11
2017-08-30T07:03:01.366Z,18.16
2017-08-30T07:04:01.990Z,18.07
2017-08-30T07:05:02.644Z,18.10
2017-08-30T07:06:03.269Z,18.16
2017-08-30T07:07:03.892Z,18.20
2017-08-30T07:08:04.640Z,18.07
2017-08-30T07:09:05.263Z,18.07
2017-08-30T07:10:05.883Z,18.11
2017-08-30T07:11:06.506Z,18.25
2017-08-30T07:12:07.157Z,18.19
2017-08-30T07:13:07.909Z,18.29
2017-08-30T07:14:08.531Z,18.26
2017-08-30T07:15:09.152Z,18.29
2017-08-30T07:16:09.773Z,18.26
2017-08-30T07:17:10.395Z,18.31
2017-08-30T07:18:11.121Z,18.40
2017-08-30T07:19:11.739Z,18.34
2017-08-30T07:20:12.361Z,18.38
2017-08-30T07:21:12.982Z,18.35
2017-08-30T07:22:13.610Z,18.35
2017-08-30T07:23:14.333Z,18.41
2017-08-30T07:24:14.955Z,18.37
2017-08-30T07:25:15.612Z,18.40
2017-08-30T07:26:16.231Z,18.53
2017-08-30T07:27:16.886Z,18.56
2017-08-30T07:28:17.608Z,18.59
2017-08-30T07:29:18.227Z,18.65
2017-08-30T07:30:18.858Z,18.66
2017-08-30T07:31:19.478Z,18.68
2017-08-30T07:32:20.101Z,18.75
2017-08-30T07:33:20.825Z,18.68
2017-08-30T07:34:21.478Z,18.70
2017-08-30T07:35:22.100Z,18.70
2017-08-30T07:36:22.720Z,18.81
2017-08-30T07:37:23.343Z,18.71
2017-08-30T07:38:24.065Z,18.75
2017-08-30T07:39:24.686Z,18.78
2017-08-30T07:40:25.312Z,18.83
2017-08-30T07:41:25.932Z,18.84
2017-08-30T07:42:26.559Z,18.90
2017-08-30T07:43:27.278Z,18.88
2017-08-30T07:44:27.901Z,18.95
2017-08-30T07:45:28.524Z,18.93
2017-08-30T07:46:29.181Z,18.84
2017-08-30T07:47:29.800Z,18.93
2017-08-30T07:48:30.521Z,18.93
2017-08-30T07:49:31.143Z,18.95
2017-08-30T07:50:31.771Z,18.93
2017-08-30T07:51:32.391Z,18.98
2017-08-30T07:52:33.043Z,18.89
2017-08-30T07:53:33.767Z,18.92
2017-08-30T07:54:34.388Z,18.93
2017-08-30T07:55:35.008Z,18.95
2017-08-30T07:56:35.631Z,19.02
2017-08-30T07:57:36.254Z,19.07
2017-08-30T07:58:36.975Z,19.19
2017-08-30T07:59:37.599Z,19.18
2017-08-30T08:00:38.221Z,19.19
2017-08-30T08:01:38.843Z,19.31
2017-08-30T08:02:39.471Z,19.34
2017-08-30T08:03:40.190Z,19.31
2017-08-30T08:04:40.850Z,19.37
2017-08-30T08:05:41.469Z,19.47
2017-08-30T08:06:42.095Z,19.49
2017-08-30T08:07:42.720Z,19.56
2017-08-30T08:08:43.446Z,19.55
2017-08-30T08:09:44.100Z,19.62
2017-08-30T08:10:44.723Z,19.66
2017-08-30T08:11:45.345Z,19.73
2017-08-30T08:12:45.972Z,19.63
2017-08-30T08:13:46.722Z,19.76
2017-08-30T08:14:47.343Z,19.81
2017-08-30T08:15:47.966Z,19.91
2017-08-30T08:16:48.588Z,19.91
2017-08-30T08:17:49.243Z,20.03
2017-08-30T08:18:49.968Z,20.06
2017-08-30T08:19:50.593Z,19.99
2017-08-30T08:20:51.218Z,20.06
2017-08-30T08:21:51.843Z,20.09
2017-08-30T08:22:52.462Z,20.18
2017-08-30T08:23:53.222Z,20.10
2017-08-30T08:24:53.847Z,20.16
2017-08-30T08:25:54.469Z,20.24
2017-08-30T08:26:55.090Z,20.34
2017-08-30T08:27:55.712Z,20.39
2017-08-30T08:28:56.437Z,20.44
2017-08-30T08:29:57.060Z,20.44
2017-08-30T08:30:57.683Z,20.31
2017-08-30T08:31:58.305Z,20.34
2017-08-30T08:32:58.928Z,20.41
2017-08-30T08:33:59.649Z,20.39
2017-08-30T08:35:00.278Z,20.37
2017-08-30T08:36:00.897Z,20.51
2017-08-30T08:37:01.520Z,20.50
2017-08-30T08:38:02.141Z,20.56
2017-08-30T08:39:02.875Z,20.59
2017-08-30T08:40:03.493Z,20.74
2017-08-30T08:41:04.121Z,20.75
2017-08-30T08:42:04.740Z,20.81
2017-08-30T08:43:05.363Z,20.85
2017-08-30T08:44:06.084Z,20.81
2017-08-30T08:45:06.714Z,20.80
2017-08-30T08:46:07.332Z,20.72
2017-08-30T08:47:07.959Z,20.74
2017-08-30T08:48:08.580Z,20.65
2017-08-30T08:49:09.302Z,20.63
2017-08-30T08:50:09.925Z,20.55
2017-08-30T08:51:10.546Z,20.65
2017-08-30T08:52:11.176Z,20.65
2017-08-30T08:53:11.831Z,20.84
2017-08-30T08:54:12.561Z,20.97
2017-08-30T08:55:13.181Z,20.99
2017-08-30T08:56:13.806Z,21.05
2017-08-30T08:57:14.465Z,21.06
2017-08-30T08:58:15.084Z,21.14
2017-08-30T08:59:15.806Z,21.15
2017-08-30T09:00:16.431Z,21.27
2017-08-30T09:01:17.059Z,21.29
2017-08-30T09:02:17.684Z,21.35
2017-08-30T09:03:18.303Z,21.36
2017-08-30T09:04:19.033Z,21.50
2017-08-30T09:05:19.654Z,21.50
2017-08-30T09:06:20.282Z,21.51
2017-08-30T09:07:20.909Z,21.50
2017-08-30T09:08:21.530Z,21.51
2017-08-30T09:09:22.252Z,21.55
2017-08-30T09:10:22.909Z,21.58
2017-08-30T09:11:23.533Z,21.66
2017-08-30T09:12:24.161Z,21.76
2017-08-30T09:13:24.781Z,21.77
2017-08-30T09:14:25.503Z,21.85
2017-08-30T09:15:26.128Z,21.76
2017-08-30T09:16:26.751Z,21.79
2017-08-30T09:17:27.373Z,21.93
2017-08-30T09:18:27.998Z,21.92
2017-08-30T09:19:28.721Z,22.04
2017-08-30T09:20:29.343Z,21.96
2017-08-30T09:21:29.968Z,22.18
2017-08-30T09:22:30.592Z,22.36
2017-08-30T09:23:31.218Z,22.26
2017-08-30T09:24:31.971Z,22.32
2017-08-30T09:25:32.600Z,22.35
2017-08-30T09:26:33.239Z,22.32
2017-08-30T09:27:33.848Z,22.44
2017-08-30T09:28:34.470Z,22.45
2017-08-30T09:29:35.200Z,22.47
2017-08-30T09:30:35.827Z,22.45
2017-08-30T09:31:36.447Z,22.47
2017-08-30T09:32:37.070Z,22.50
2017-08-30T09:33:37.703Z,22.60
2017-08-30T09:34:38.419Z,22.60
2017-08-30T09:35:39.042Z,22.53
2017-08-30T09:36:39.669Z,22.43
2017-08-30T09:37:40.294Z,22.47
2017-08-30T09:38:40.938Z,22.44
2017-08-30T09:39:41.650Z,22.44
2017-08-30T09:40:42.277Z,22.47
2017-08-30T09:41:42.937Z,22.51
2017-08-30T09:42:43.564Z,22.75
2017-08-30T09:43:44.192Z,22.75
2017-08-30T09:44:44.916Z,22.84
2017-08-30T09:45:45.537Z,22.90
2017-08-30T09:46:46.162Z,22.83
2017-08-30T09:47:46.827Z,22.90
2017-08-30T09:48:47.445Z,23.02
2017-08-30T09:49:48.201Z,23.20
2017-08-30T09:50:48.823Z,23.28
2017-08-30T09:51:49.456Z,23.43
2017-08-30T09:52:50.079Z,23.39
2017-08-30T09:53:50.737Z,23.36
2017-08-30T09:54:51.493Z,23.36
2017-08-30T09:55:52.149Z,23.43
2017-08-30T09:56:52.776Z,23.47
2017-08-30T09:57:53.397Z,23.59
2017-08-30T09:58:54.055Z,23.77
2017-08-30T09:59:54.681Z,23.88
2017-08-30T10:00:55.306Z,24.02
2017-08-30T10:01:55.930Z,24.02
2017-08-30T10:02:56.561Z,23.87
2017-08-30T10:03:57.282Z,23.84
2017-08-30T10:04:57.914Z,23.88
2017-08-30T10:05:58.535Z,23.93
2017-08-30T10:06:59.159Z,23.92
2017-08-30T10:07:59.786Z,23.86
2017-08-30T10:09:00.513Z,23.83
2017-08-30T10:10:01.136Z,23.87
2017-08-30T10:11:01.764Z,23.87
2017-08-30T10:12:02.390Z,23.87
2017-08-30T10:13:03.022Z,23.92
2017-08-30T10:14:03.645Z,23.88
2017-08-30T10:15:04.371Z,24.02
2017-08-30T10:16:05.001Z,23.98
2017-08-30T10:17:05.623Z,24.01
2017-08-30T10:18:06.249Z,24.01
2017-08-30T10:19:06.873Z,24.17
2017-08-30T10:20:07.605Z,24.32
2017-08-30T10:21:08.228Z,24.42
2017-08-30T10:22:08.859Z,24.50
2017-08-30T10:23:09.488Z,24.40
2017-08-30T10:24:10.146Z,24.42
2017-08-30T10:25:10.870Z,24.36
2017-08-30T10:26:11.495Z,24.26
2017-08-30T10:27:12.121Z,24.20
2017-08-30T10:28:12.748Z,24.20
2017-08-30T10:29:13.374Z,24.18
2017-08-30T10:30:14.105Z,24.24
2017-08-30T10:31:14.728Z,24.18
2017-08-30T10:32:15.356Z,24.06
2017-08-30T10:33:15.985Z,24.06
2017-08-30T10:34:16.613Z,24.03
2017-08-30T10:35:17.344Z,24.05
2017-08-30T10:36:17.975Z,24.20
2017-08-30T10:37:18.589Z,24.33
2017-08-30T10:38:19.222Z,24.38
2017-08-30T10:39:19.846Z,24.32
2017-08-30T10:40:20.574Z,24.43
2017-08-30T10:41:21.205Z,24.58
2017-08-30T10:42:21.831Z,24.74
2017-08-30T10:43:22.458Z,24.92
2017-08-30T10:44:23.084Z,24.99
2017-08-30T10:45:23.808Z,25.10
2017-08-30T10:46:24.434Z,25.11
2017-08-30T10:47:25.065Z,25.31
2017-08-30T10:48:25.689Z,25.32
2017-08-30T10:49:26.315Z,25.29
2017-08-30T10:50:26.941Z,25.11
2017-08-30T10:51:27.817Z,24.96
2017-08-30T10:52:28.444Z,24.81
2017-08-30T10:53:29.071Z,24.73
2017-08-30T10:54:29.730Z,24.68
2017-08-30T10:55:30.357Z,24.55
2017-08-30T10:56:31.090Z,24.40
2017-08-30T10:57:31.714Z,24.36
2017-08-30T10:58:32.341Z,24.39
2017-08-30T10:59:32.967Z,24.43
2017-08-30T11:00:33.596Z,24.45
2017-08-30T11:01:34.351Z,24.53
2017-08-30T11:02:34.978Z,24.54
2017-08-30T11:03:35.606Z,24.50
2017-08-30T11:04:36.232Z,24.42
2017-08-30T11:05:36.857Z,24.36
2017-08-30T11:06:37.584Z,24.48
2017-08-30T11:07:38.209Z,24.43
2017-08-30T11:08:38.869Z,24.39
2017-08-30T11:09:39.496Z,24.48
2017-08-30T11:10:40.124Z,24.57
2017-08-30T11:11:40.849Z,24.55
2017-08-30T11:12:41.475Z,24.45
2017-08-30T11:13:42.100Z,24.20
2017-08-30T11:14:42.725Z,24.02
2017-08-30T11:15:43.353Z,24.03
2017-08-30T11:16:44.114Z,23.98
2017-08-30T11:17:44.737Z,23.87
2017-08-30T11:18:45.362Z,23.81
2017-08-30T11:19:45.988Z,23.74
2017-08-30T11:20:46.619Z,23.74
2017-08-30T11:21:47.375Z,23.77
2017-08-30T11:22:48.006Z,23.86
2017-08-30T11:23:48.632Z,23.93
2017-08-30T11:24:49.258Z,23.98
2017-08-30T11:25:49.883Z,24.01
2017-08-30T11:26:50.507Z,24.16
2017-08-30T11:27:51.240Z,24.35
2017-08-30T11:28:51.864Z,24.54
2017-08-30T11:29:52.524Z,24.65
2017-08-30T11:30:53.117Z,24.63
2017-08-30T11:31:53.778Z,24.65
2017-08-30T11:32:54.404Z,24.66
2017-08-30T11:33:55.129Z,24.77
2017-08-30T11:34:55.756Z,24.86
2017-08-30T11:35:56.389Z,24.91
2017-08-30T11:36:57.014Z,24.88
2017-08-30T11:37:57.645Z,24.86
2017-08-30T11:38:58.375Z,24.91
2017-08-30T11:39:59.003Z,25.08
2017-08-30T11:40:59.634Z,25.21
2017-08-30T11:42:00.257Z,25.28
2017-08-30T11:43:00.882Z,25.32
2017-08-30T11:44:01.515Z,25.36
2017-08-30T11:45:02.139Z,25.28
2017-08-30T11:46:02.878Z,25.14
2017-08-30T11:47:03.535Z,24.91
2017-08-30T11:48:04.158Z,24.77
2017-08-30T11:49:04.786Z,24.69
2017-08-30T11:50:05.411Z,24.63
2017-08-30T11:51:06.138Z,24.42
2017-08-30T11:52:06.764Z,24.30
2017-08-30T11:53:07.389Z,24.28
2017-08-30T11:54:08.016Z,24.10
2017-08-30T11:55:08.640Z,24.03
2017-08-30T11:56:09.365Z,23.96
2017-08-30T11:57:09.990Z,23.99
2017-08-30T11:58:10.616Z,23.86
2017-08-30T11:59:11.242Z,23.86
2017-08-30T12:00:11.873Z,23.92
2017-08-30T12:01:12.603Z,24.05
2017-08-30T12:02:13.225Z,23.96
2017-08-30T12:03:13.882Z,24.10
2017-08-30T12:04:14.509Z,24.06
2017-08-30T12:05:15.141Z,24.05
2017-08-30T12:06:15.864Z,23.99
2017-08-30T12:07:16.493Z,23.80
2017-08-30T12:08:17.118Z,23.63
2017-08-30T12:09:17.775Z,23.50
2017-08-30T12:10:18.401Z,23.41
2017-08-30T12:11:19.127Z,23.20
2017-08-30T12:12:19.759Z,23.25
2017-08-30T12:13:20.381Z,23.32
2017-08-30T12:14:21.006Z,23.32
2017-08-30T12:15:21.631Z,23.31
2017-08-30T12:16:22.358Z,23.31
2017-08-30T12:17:22.983Z,23.40
2017-08-30T12:18:23.607Z,23.47
2017-08-30T12:19:24.234Z,23.59
2017-08-30T12:20:24.860Z,23.74
2017-08-30T12:21:25.591Z,23.86
2017-08-30T12:22:26.216Z,23.98
2017-08-30T12:23:26.841Z,23.95
2017-08-30T12:24:27.465Z,24.13
2017-08-30T12:25:28.091Z,24.02
2017-08-30T12:26:28.821Z,24.01
2017-08-30T12:27:29.446Z,23.96
2017-08-30T12:28:30.076Z,23.93
2017-08-30T12:29:30.699Z,23.81
2017-08-30T12:30:31.331Z,23.71
2017-08-30T12:31:32.059Z,23.56
2017-08-30T12:32:32.693Z,23.32
2017-08-30T12:33:33.355Z,23.17
2017-08-30T12:34:33.978Z,22.98
2017-08-30T12:35:34.602Z,22.91
2017-08-30T12:36:35.333Z,22.85
2017-08-30T12:37:35.957Z,22.96
2017-08-30T12:38:36.581Z,23.05
2017-08-30T12:39:37.207Z,23.12
2017-08-30T12:40:37.834Z,23.10
2017-08-30T12:41:38.561Z,23.27
2017-08-30T12:42:39.187Z,23.18
2017-08-30T12:43:39.812Z,23.36
2017-08-30T12:44:40.451Z,23.24
2017-08-30T12:45:41.070Z,23.15
2017-08-30T12:46:41.795Z,23.03
2017-08-30T12:47:42.452Z,23.05
2017-08-30T12:48:43.107Z,22.98
2017-08-30T12:49:43.733Z,22.94
2017-08-30T12:50:44.357Z,22.99
2017-08-30T12:51:45.282Z,22.98
2017-08-30T12:52:45.910Z,22.88
2017-08-30T12:53:46.539Z,22.85
2017-08-30T12:54:47.161Z,22.84
2017-08-30T12:55:47.785Z,22.88
2017-08-30T12:56:48.512Z,22.98
2017-08-30T12:57:49.138Z,23.02
2017-08-30T12:58:49.762Z,23.08
2017-08-30T12:59:50.393Z,23.20
2017-08-30T13:00:51.016Z,23.21